sensor_id;sensor_type;location;lat;lon;timestamp;pressure;altitude;pressure_sealevel;temperature;humidity
12247;BME280;6186;52.022;4.692;2022-07-23T00:01:24;102035.34;;;17.63;75.21
12247;BME280;6186;52.022;4.692;2022-07-23T00:03:50;102042.56;;;17.60;74.93
12247;BME280;6186;52.022;4.692;2022-07-23T00:06:17;102043.53;;;17.57;75.11
12247;BME280;6186;52.022;4.692;2022-07-23T00:08:42;102040.94;;;17.56;75.39
12247;BME280;6186;52.022;4.692;2022-07-23T00:11:07;102049.00;;;17.53;75.12
12247;BME280;6186;52.022;4.692;2022-07-23T00:13:33;102044.63;;;17.52;75.29
12247;BME280;6186;52.022;4.692;2022-07-23T00:15:58;102039.28;;;17.52;75.73
12247;BME280;6186;52.022;4.692;2022-07-23T00:18:24;102016.66;;;17.39;75.51
12247;BME280;6186;52.022;4.692;2022-07-23T00:20:49;102027.88;;;17.47;75.84
12247;BME280;6186;52.022;4.692;2022-07-23T00:23:15;102034.22;;;17.44;75.47
12247;BME280;6186;52.022;4.692;2022-07-23T00:25:40;102028.13;;;17.41;75.75
12247;BME280;6186;52.022;4.692;2022-07-23T00:28:05;102022.88;;;17.38;75.56
12247;BME280;6186;52.022;4.692;2022-07-23T00:30:31;102017.63;;;17.36;75.98
12247;BME280;6186;52.022;4.692;2022-07-23T00:32:59;102007.09;;;17.33;76.08
12247;BME280;6186;52.022;4.692;2022-07-23T00:35:26;102003.59;;;17.31;75.77
12247;BME280;6186;52.022;4.692;2022-07-23T00:37:52;102009.84;;;17.30;75.93
12247;BME280;6186;52.022;4.692;2022-07-23T00:40:18;102000.97;;;17.30;76.02
12247;BME280;6186;52.022;4.692;2022-07-23T00:42:44;101998.38;;;17.28;76.07
12247;BME280;6186;52.022;4.692;2022-07-23T00:45:09;102004.69;;;17.26;76.08
12247;BME280;6186;52.022;4.692;2022-07-23T00:47:35;102000.31;;;17.23;76.22
12247;BME280;6186;52.022;4.692;2022-07-23T00:50:01;101968.03;;;17.08;76.23
12247;BME280;6186;52.022;4.692;2022-07-23T00:52:28;101994.25;;;17.20;76.13
12247;BME280;6186;52.022;4.692;2022-07-23T00:54:54;101997.81;;;17.19;76.22
12247;BME280;6186;52.022;4.692;2022-07-23T00:57:20;101994.38;;;17.15;76.33
12247;BME280;6186;52.022;4.692;2022-07-23T00:59:46;101994.50;;;17.12;76.49
12247;BME280;6186;52.022;4.692;2022-07-23T01:02:11;101996.34;;;17.10;76.60
12247;BME280;6186;52.022;4.692;2022-07-23T01:04:36;101992.88;;;17.08;76.37
12247;BME280;6186;52.022;4.692;2022-07-23T01:07:02;101983.25;;;17.04;76.52
12247;BME280;6186;52.022;4.692;2022-07-23T01:09:27;101985.97;;;17.03;76.76
12247;BME280;6186;52.022;4.692;2022-07-23T01:11:54;101981.66;;;16.99;76.86
12247;BME280;6186;52.022;4.692;2022-07-23T01:14:20;101978.19;;;16.97;76.73
12247;BME280;6186;52.022;4.692;2022-07-23T01:16:47;101980.06;;;16.93;76.80
12247;BME280;6186;52.022;4.692;2022-07-23T01:19:13;101981.03;;;16.90;76.67
12247;BME280;6186;52.022;4.692;2022-07-23T01:21:44;101973.22;;;16.86;76.83
12247;BME280;6186;52.022;4.692;2022-07-23T01:24:10;101976.84;;;16.83;77.01
12247;BME280;6186;52.022;4.692;2022-07-23T01:26:37;101969.13;;;16.76;77.01
12247;BME280;6186;52.022;4.692;2022-07-23T01:29:03;101968.19;;;16.77;77.26
12247;BME280;6186;52.022;4.692;2022-07-23T01:31:28;101969.19;;;16.74;77.14
12247;BME280;6186;52.022;4.692;2022-07-23T01:33:54;101980.66;;;16.75;77.48
12247;BME280;6186;52.022;4.692;2022-07-23T01:36:19;101977.16;;;16.74;77.68
12247;BME280;6186;52.022;4.692;2022-07-23T01:38:45;101978.94;;;16.74;77.42
12247;BME280;6186;52.022;4.692;2022-07-23T01:41:10;101981.66;;;16.72;77.75
12247;BME280;6186;52.022;4.692;2022-07-23T01:43:35;101984.38;;;16.71;77.65
12247;BME280;6186;52.022;4.692;2022-07-23T01:46:01;101989.75;;;16.68;77.78
12247;BME280;6186;52.022;4.692;2022-07-23T01:48:26;101985.41;;;16.65;77.74
12247;BME280;6186;52.022;4.692;2022-07-23T01:50:51;101988.13;;;16.64;78.13
12247;BME280;6186;52.022;4.692;2022-07-23T01:53:17;101988.19;;;16.62;78.12
12247;BME280;6186;52.022;4.692;2022-07-23T01:55:42;101985.63;;;16.59;77.90
12247;BME280;6186;52.022;4.692;2022-07-23T01:58:08;102002.47;;;16.58;78.34
12247;BME280;6186;52.022;4.692;2022-07-23T02:00:33;101988.34;;;16.56;78.30
12247;BME280;6186;52.022;4.692;2022-07-23T02:02:59;101984.88;;;16.54;78.24
12247;BME280;6186;52.022;4.692;2022-07-23T02:05:25;101991.13;;;16.53;78.53
12247;BME280;6186;52.022;4.692;2022-07-23T02:07:51;101987.66;;;16.51;78.53
12247;BME280;6186;52.022;4.692;2022-07-23T02:10:16;101992.13;;;16.49;78.68
12247;BME280;6186;52.022;4.692;2022-07-23T02:12:42;101990.41;;;16.48;78.66
12247;BME280;6186;52.022;4.692;2022-07-23T02:15:07;101979.81;;;16.45;78.83
12247;BME280;6186;52.022;4.692;2022-07-23T02:17:33;101957.31;;;16.29;78.78
12247;BME280;6186;52.022;4.692;2022-07-23T02:19:58;101981.75;;;16.40;78.57
12247;BME280;6186;52.022;4.692;2022-07-23T02:22:23;101980.06;;;16.38;78.92
12247;BME280;6186;52.022;4.692;2022-07-23T02:24:49;101979.28;;;16.34;78.96
12247;BME280;6186;52.022;4.692;2022-07-23T02:27:14;101985.44;;;16.36;79.23
12247;BME280;6186;52.022;4.692;2022-07-23T02:29:39;101978.53;;;16.31;79.04
12247;BME280;6186;52.022;4.692;2022-07-23T02:32:05;101969.72;;;16.29;78.93
12247;BME280;6186;52.022;4.692;2022-07-23T02:34:30;101982.94;;;16.30;79.37
12247;BME280;6186;52.022;4.692;2022-07-23T02:36:55;101962.13;;;16.17;79.31
12247;BME280;6186;52.022;4.692;2022-07-23T02:39:21;101991.06;;;16.26;79.50
12247;BME280;6186;52.022;4.692;2022-07-23T02:41:46;101986.66;;;16.25;79.52
12247;BME280;6186;52.022;4.692;2022-07-23T02:44:11;101987.69;;;16.21;79.78
12247;BME280;6186;52.022;4.692;2022-07-23T02:46:37;101993.03;;;16.19;79.53
12247;BME280;6186;52.022;4.692;2022-07-23T02:49:02;101984.38;;;16.13;79.84
12247;BME280;6186;52.022;4.692;2022-07-23T02:51:29;102007.28;;;16.17;79.79
12247;BME280;6186;52.022;4.692;2022-07-23T02:53:55;101989.59;;;16.16;79.89
12247;BME280;6186;52.022;4.692;2022-07-23T02:56:20;102004.66;;;16.15;79.94
12247;BME280;6186;52.022;4.692;2022-07-23T02:58:45;102006.56;;;16.12;79.99
12247;BME280;6186;52.022;4.692;2022-07-23T03:01:11;102001.28;;;16.10;80.29
12247;BME280;6186;52.022;4.692;2022-07-23T03:03:36;102001.47;;;16.04;79.98
12247;BME280;6186;52.022;4.692;2022-07-23T03:06:01;101997.88;;;16.05;80.14
12247;BME280;6186;52.022;4.692;2022-07-23T03:08:26;102003.19;;;16.05;80.29
12247;BME280;6186;52.022;4.692;2022-07-23T03:10:52;101997.88;;;16.05;80.45
12247;BME280;6186;52.022;4.692;2022-07-23T03:13:17;101996.16;;;16.04;80.62
12247;BME280;6186;52.022;4.692;2022-07-23T03:15:42;101990.84;;;16.04;80.72
12247;BME280;6186;52.022;4.692;2022-07-23T03:18:08;101998.75;;;16.06;80.93
12247;BME280;6186;52.022;4.692;2022-07-23T03:20:33;101994.38;;;16.05;81.12
12247;BME280;6186;52.022;4.692;2022-07-23T03:22:58;101991.78;;;16.01;81.19
12247;BME280;6186;52.022;4.692;2022-07-23T03:25:24;101989.06;;;16.05;80.96
12247;BME280;6186;52.022;4.692;2022-07-23T03:27:49;101996.16;;;16.04;81.24
12247;BME280;6186;52.022;4.692;2022-07-23T03:30:14;101990.13;;;15.99;81.28
12247;BME280;6186;52.022;4.692;2022-07-23T03:32:39;102004.19;;;16.01;81.13
12247;BME280;6186;52.022;4.692;2022-07-23T03:35:05;101986.59;;;15.98;81.21
12247;BME280;6186;52.022;4.692;2022-07-23T03:37:30;101998.09;;;15.99;81.49
12247;BME280;6186;52.022;4.692;2022-07-23T03:39:56;101988.34;;;15.98;81.48
12247;BME280;6186;52.022;4.692;2022-07-23T03:42:21;101982.16;;;15.99;81.81
12247;BME280;6186;52.022;4.692;2022-07-23T03:44:47;101998.09;;;15.99;81.61
12247;BME280;6186;52.022;4.692;2022-07-23T03:47:12;101983.16;;;15.93;82.11
12247;BME280;6186;52.022;4.692;2022-07-23T03:49:37;101990.13;;;15.97;81.96
12247;BME280;6186;52.022;4.692;2022-07-23T03:52:03;102000.81;;;15.96;82.06
12247;BME280;6186;52.022;4.692;2022-07-23T03:54:28;101999.97;;;15.94;82.15
12247;BME280;6186;52.022;4.692;2022-07-23T03:56:54;101992.84;;;15.96;82.22
12247;BME280;6186;52.022;4.692;2022-07-23T03:59:19;101994.59;;;15.97;82.27
12247;BME280;6186;52.022;4.692;2022-07-23T04:01:44;101993.00;;;15.91;82.46
12247;BME280;6186;52.022;4.692;2022-07-23T04:04:09;101999.91;;;15.97;82.69
12247;BME280;6186;52.022;4.692;2022-07-23T04:06:35;102005.22;;;15.97;82.98
12247;BME280;6186;52.022;4.692;2022-07-23T04:09:01;102012.31;;;15.96;82.96
12247;BME280;6186;52.022;4.692;2022-07-23T04:11:27;102015.03;;;15.95;82.89
12247;BME280;6186;52.022;4.692;2022-07-23T04:13:52;102022.16;;;15.93;82.96
12247;BME280;6186;52.022;4.692;2022-07-23T04:16:17;102015.03;;;15.93;83.26
12247;BME280;6186;52.022;4.692;2022-07-23T04:18:43;102010.66;;;15.92;83.22
12247;BME280;6186;52.022;4.692;2022-07-23T04:21:08;102015.97;;;15.92;83.48
12247;BME280;6186;52.022;4.692;2022-07-23T04:23:33;102012.38;;;15.93;83.55
12247;BME280;6186;52.022;4.692;2022-07-23T04:25:59;102008.81;;;15.94;83.76
12247;BME280;6186;52.022;4.692;2022-07-23T04:28:24;102014.13;;;15.94;83.61
12247;BME280;6186;52.022;4.692;2022-07-23T04:30:49;102010.59;;;15.94;84.03
12247;BME280;6186;52.022;4.692;2022-07-23T04:33:15;102021.22;;;15.94;84.03
12247;BME280;6186;52.022;4.692;2022-07-23T04:35:40;102020.34;;;15.93;84.03
12247;BME280;6186;52.022;4.692;2022-07-23T04:38:05;102019.41;;;15.96;84.27
12247;BME280;6186;52.022;4.692;2022-07-23T04:40:31;102017.56;;;15.98;84.52
12247;BME280;6186;52.022;4.692;2022-07-23T04:42:56;102012.38;;;15.93;84.52
12247;BME280;6186;52.022;4.692;2022-07-23T04:45:22;102029.84;;;16.02;84.73
12247;BME280;6186;52.022;4.692;2022-07-23T04:47:48;102026.19;;;16.06;85.15
12247;BME280;6186;52.022;4.692;2022-07-23T04:50:14;102026.97;;;16.10;85.26
12247;BME280;6186;52.022;4.692;2022-07-23T04:52:42;102021.63;;;16.11;85.32
12247;BME280;6186;52.022;4.692;2022-07-23T04:55:08;102028.69;;;16.12;85.32
12247;BME280;6186;52.022;4.692;2022-07-23T04:57:33;102031.25;;;16.15;85.56
12247;BME280;6186;52.022;4.692;2022-07-23T04:59:58;102032.06;;;16.17;85.53
12247;BME280;6186;52.022;4.692;2022-07-23T05:02:24;102026.69;;;16.19;85.86
12247;BME280;6186;52.022;4.692;2022-07-23T05:04:49;102024.00;;;16.20;86.12
12247;BME280;6186;52.022;4.692;2022-07-23T05:07:14;102024.94;;;16.19;86.29
12247;BME280;6186;52.022;4.692;2022-07-23T05:09:39;102028.34;;;16.23;86.08
12247;BME280;6186;52.022;4.692;2022-07-23T05:12:05;102033.53;;;16.27;86.61
12247;BME280;6186;52.022;4.692;2022-07-23T05:14:30;102022.09;;;16.25;86.76
12247;BME280;6186;52.022;4.692;2022-07-23T05:16:56;102022.88;;;16.29;86.66
12247;BME280;6186;52.022;4.692;2022-07-23T05:19:21;102024.56;;;16.31;86.79
12247;BME280;6186;52.022;4.692;2022-07-23T05:21:46;102034.28;;;16.32;86.85
12247;BME280;6186;52.022;4.692;2022-07-23T05:24:12;102025.38;;;16.33;87.12
12247;BME280;6186;52.022;4.692;2022-07-23T05:26:37;102039.53;;;16.34;87.08
12247;BME280;6186;52.022;4.692;2022-07-23T05:29:02;102043.91;;;16.36;87.20
12247;BME280;6186;52.022;4.692;2022-07-23T05:31:28;102032.34;;;16.37;87.83
12247;BME280;6186;52.022;4.692;2022-07-23T05:33:53;102023.47;;;16.38;87.76
12247;BME280;6186;52.022;4.692;2022-07-23T05:36:18;102036.41;;;16.50;88.12
12247;BME280;6186;52.022;4.692;2022-07-23T05:38:44;102035.38;;;16.54;88.37
12247;BME280;6186;52.022;4.692;2022-07-23T05:41:09;102025.75;;;16.50;88.51
12247;BME280;6186;52.022;4.692;2022-07-23T05:43:37;102036.13;;;16.59;88.40
12247;BME280;6186;52.022;4.692;2022-07-23T05:46:03;102030.75;;;16.61;88.38
12247;BME280;6186;52.022;4.692;2022-07-23T05:48:28;102040.47;;;16.62;88.86
12247;BME280;6186;52.022;4.692;2022-07-23T05:50:53;102022.84;;;16.59;88.65
12247;BME280;6186;52.022;4.692;2022-07-23T05:53:19;102036.75;;;16.67;89.05
12247;BME280;6186;52.022;4.692;2022-07-23T05:55:44;102038.44;;;16.70;89.14
12247;BME280;6186;52.022;4.692;2022-07-23T05:58:09;102041.03;;;16.73;89.04
12247;BME280;6186;52.022;4.692;2022-07-23T06:00:35;102040.97;;;16.74;89.32
12247;BME280;6186;52.022;4.692;2022-07-23T06:03:00;102046.13;;;16.79;89.56
12247;BME280;6186;52.022;4.692;2022-07-23T06:05:26;102045.06;;;16.84;89.88
12247;BME280;6186;52.022;4.692;2022-07-23T06:07:51;102047.59;;;16.89;89.95
12247;BME280;6186;52.022;4.692;2022-07-23T06:10:18;102050.13;;;16.93;89.79
12247;BME280;6186;52.022;4.692;2022-07-23T06:12:43;102049.03;;;16.99;90.18
12247;BME280;6186;52.022;4.692;2022-07-23T06:15:09;102062.19;;;17.04;90.07
12247;BME280;6186;52.022;4.692;2022-07-23T06:17:34;102055.91;;;17.06;90.20
12247;BME280;6186;52.022;4.692;2022-07-23T06:20:01;102041.06;;;16.99;90.52
12247;BME280;6186;52.022;4.692;2022-07-23T06:22:26;102060.09;;;17.13;90.49
12247;BME280;6186;52.022;4.692;2022-07-23T06:24:52;102064.50;;;17.14;90.56
12247;BME280;6186;52.022;4.692;2022-07-23T06:27:18;102057.34;;;17.16;90.38
12247;BME280;6186;52.022;4.692;2022-07-23T06:29:43;102048.53;;;17.14;90.51
12247;BME280;6186;52.022;4.692;2022-07-23T06:32:09;102055.34;;;17.23;91.06
12247;BME280;6186;52.022;4.692;2022-07-23T06:34:34;102048.09;;;17.28;91.31
12247;BME280;6186;52.022;4.692;2022-07-23T06:36:59;102042.78;;;17.28;91.25
12247;BME280;6186;52.022;4.692;2022-07-23T06:39:25;102045.25;;;17.32;91.30
12247;BME280;6186;52.022;4.692;2022-07-23T06:41:50;102046.97;;;17.35;91.47
12247;BME280;6186;52.022;4.692;2022-07-23T06:44:16;102043.22;;;17.40;91.71
12247;BME280;6186;52.022;4.692;2022-07-23T06:46:41;102045.66;;;17.46;91.64
12247;BME280;6186;52.022;4.692;2022-07-23T06:49:07;102049.00;;;17.53;92.25
12247;BME280;6186;52.022;4.692;2022-07-23T06:51:32;102054.06;;;17.60;92.43
12247;BME280;6186;52.022;4.692;2022-07-23T06:53:57;102055.50;;;17.70;92.96
12247;BME280;6186;52.022;4.692;2022-07-23T06:56:23;102054.28;;;17.79;92.89
12247;BME280;6186;52.022;4.692;2022-07-23T06:58:48;102055.69;;;17.89;93.18
12247;BME280;6186;52.022;4.692;2022-07-23T07:01:14;102058.03;;;17.98;93.71
12247;BME280;6186;52.022;4.692;2022-07-23T07:03:39;102055.06;;;18.07;94.06
12247;BME280;6186;52.022;4.692;2022-07-23T07:06:04;102048.44;;;18.17;94.33
12247;BME280;6186;52.022;4.692;2022-07-23T07:08:30;102058.75;;;18.26;94.66
12247;BME280;6186;52.022;4.692;2022-07-23T07:10:55;102055.09;;;18.29;94.37
12247;BME280;6186;52.022;4.692;2022-07-23T07:13:20;102065.56;;;18.35;94.42
12247;BME280;6186;52.022;4.692;2022-07-23T07:15:46;102067.25;;;18.37;94.61
12247;BME280;6186;52.022;4.692;2022-07-23T07:18:11;102070.56;;;18.44;94.61
12247;BME280;6186;52.022;4.692;2022-07-23T07:20:36;102073.81;;;18.52;94.90
12247;BME280;6186;52.022;4.692;2022-07-23T07:23:02;102068.25;;;18.58;95.52
12247;BME280;6186;52.022;4.692;2022-07-23T07:25:27;102061.59;;;18.68;95.59
12247;BME280;6186;52.022;4.692;2022-07-23T07:27:53;102066.34;;;18.83;96.21
12247;BME280;6186;52.022;4.692;2022-07-23T07:30:18;102055.25;;;18.94;96.50
12247;BME280;6186;52.022;4.692;2022-07-23T07:32:43;102071.63;;;19.06;96.51
12247;BME280;6186;52.022;4.692;2022-07-23T07:35:09;102068.41;;;19.20;97.20
12247;BME280;6186;52.022;4.692;2022-07-23T07:37:34;102073.19;;;19.33;97.16
12247;BME280;6186;52.022;4.692;2022-07-23T07:39:59;102067.34;;;19.45;97.68
12247;BME280;6186;52.022;4.692;2022-07-23T07:42:25;102073.59;;;19.66;97.79
12247;BME280;6186;52.022;4.692;2022-07-23T07:44:50;102066.69;;;19.81;97.94
12247;BME280;6186;52.022;4.692;2022-07-23T07:47:15;102078.91;;;19.86;97.55
12247;BME280;6186;52.022;4.692;2022-07-23T07:49:42;102069.28;;;19.82;96.88
12247;BME280;6186;52.022;4.692;2022-07-23T07:52:07;102075.28;;;19.87;96.95
12247;BME280;6186;52.022;4.692;2022-07-23T07:54:33;102074.13;;;19.94;97.79
12247;BME280;6186;52.022;4.692;2022-07-23T07:56:58;102077.63;;;20.15;98.44
12247;BME280;6186;52.022;4.692;2022-07-23T07:59:23;102077.53;;;20.36;99.42
12247;BME280;6186;52.022;4.692;2022-07-23T08:01:49;102081.06;;;20.57;99.49
12247;BME280;6186;52.022;4.692;2022-07-23T08:04:14;102089.16;;;20.74;99.82
12247;BME280;6186;52.022;4.692;2022-07-23T08:06:39;102092.19;;;20.85;99.72
12247;BME280;6186;52.022;4.692;2022-07-23T08:09:05;102093.53;;;20.94;99.81
12247;BME280;6186;52.022;4.692;2022-07-23T08:11:30;102094.63;;;21.08;99.91
12247;BME280;6186;52.022;4.692;2022-07-23T08:13:55;102095.03;;;21.18;99.90
12247;BME280;6186;52.022;4.692;2022-07-23T08:16:21;102090.09;;;21.27;99.83
12247;BME280;6186;52.022;4.692;2022-07-23T08:18:47;102095.72;;;21.40;100.00
12247;BME280;6186;52.022;4.692;2022-07-23T08:21:12;102091.78;;;21.47;99.88
12247;BME280;6186;52.022;4.692;2022-07-23T08:23:37;102088.81;;;21.53;99.57
12247;BME280;6186;52.022;4.692;2022-07-23T08:26:03;102098.88;;;21.65;100.00
12247;BME280;6186;52.022;4.692;2022-07-23T08:28:29;102102.56;;;21.81;100.00
12247;BME280;6186;52.022;4.692;2022-07-23T08:30:57;102083.16;;;21.76;99.85
12247;BME280;6186;52.022;4.692;2022-07-23T08:33:23;102102.09;;;21.90;99.53
12247;BME280;6186;52.022;4.692;2022-07-23T08:35:50;102098.69;;;22.04;100.00
12247;BME280;6186;52.022;4.692;2022-07-23T08:38:17;102097.78;;;22.20;100.00
12247;BME280;6186;52.022;4.692;2022-07-23T08:40:48;102096.44;;;22.29;100.00
12247;BME280;6186;52.022;4.692;2022-07-23T08:43:16;102097.81;;;22.36;100.00
12247;BME280;6186;52.022;4.692;2022-07-23T08:45:44;102096.38;;;22.46;100.00
12247;BME280;6186;52.022;4.692;2022-07-23T08:48:29;102103.88;;;22.57;100.00
12247;BME280;6186;52.022;4.692;2022-07-23T08:50:57;102099.97;;;22.62;100.00
12247;BME280;6186;52.022;4.692;2022-07-23T08:53:25;102097.50;;;22.75;100.00
12247;BME280;6186;52.022;4.692;2022-07-23T08:55:53;102097.47;;;22.90;100.00
12247;BME280;6186;52.022;4.692;2022-07-23T08:58:19;102096.28;;;22.96;100.00
12247;BME280;6186;52.022;4.692;2022-07-23T09:00:45;102099.31;;;23.05;100.00
12247;BME280;6186;52.022;4.692;2022-07-23T09:03:28;102104.25;;;23.13;99.77
12247;BME280;6186;52.022;4.692;2022-07-23T09:05:55;102100.63;;;23.14;99.44
12247;BME280;6186;52.022;4.692;2022-07-23T09:08:33;102098.34;;;23.22;99.51
12247;BME280;6186;52.022;4.692;2022-07-23T09:11:01;102104.41;;;23.41;100.00
12247;BME280;6186;52.022;4.692;2022-07-23T09:13:34;102106.22;;;23.56;100.00
12247;BME280;6186;52.022;4.692;2022-07-23T09:16:09;102106.25;;;23.70;100.00
12247;BME280;6186;52.022;4.692;2022-07-23T09:21:09;102111.56;;;24.15;100.00
12247;BME280;6186;52.022;4.692;2022-07-23T09:28:53;102112.75;;;24.68;100.00
12247;BME280;6186;52.022;4.692;2022-07-23T09:31:19;102095.63;;;24.83;100.00
12247;BME280;6186;52.022;4.692;2022-07-23T09:33:45;102094.91;;;25.07;100.00
12247;BME280;6186;52.022;4.692;2022-07-23T09:36:10;102096.47;;;25.24;100.00
12247;BME280;6186;52.022;4.692;2022-07-23T09:38:48;102093.34;;;25.44;100.00
12247;BME280;6186;52.022;4.692;2022-07-23T09:41:13;102108.94;;;25.66;100.00
12247;BME280;6186;52.022;4.692;2022-07-23T09:43:39;102105.50;;;25.76;100.00
12247;BME280;6186;52.022;4.692;2022-07-23T09:46:25;102110.91;;;25.76;100.00
12247;BME280;6186;52.022;4.692;2022-07-23T09:48:55;102097.97;;;25.81;100.00
12247;BME280;6186;52.022;4.692;2022-07-23T09:51:24;102102.19;;;25.98;100.00
12247;BME280;6186;52.022;4.692;2022-07-23T09:54:00;102099.22;;;26.15;100.00
12247;BME280;6186;52.022;4.692;2022-07-23T09:56:27;102104.50;;;26.42;100.00
12247;BME280;6186;52.022;4.692;2022-07-23T09:58:53;102100.47;;;26.60;100.00
12247;BME280;6186;52.022;4.692;2022-07-23T10:01:33;102104.69;;;26.76;100.00
12247;BME280;6186;52.022;4.692;2022-07-23T10:03:59;102105.00;;;26.84;100.00
12247;BME280;6186;52.022;4.692;2022-07-23T10:06:25;102103.34;;;26.94;100.00
12247;BME280;6186;52.022;4.692;2022-07-23T10:08:53;102100.47;;;27.09;100.00
12247;BME280;6186;52.022;4.692;2022-07-23T10:11:23;102096.75;;;27.22;100.00
12247;BME280;6186;52.022;4.692;2022-07-23T10:13:49;102098.81;;;27.19;99.22
12247;BME280;6186;52.022;4.692;2022-07-23T10:16:24;102103.91;;;27.23;99.45
12247;BME280;6186;52.022;4.692;2022-07-23T10:18:50;102097.94;;;27.18;99.49
12247;BME280;6186;52.022;4.692;2022-07-23T10:21:30;102101.09;;;27.12;98.89
12247;BME280;6186;52.022;4.692;2022-07-23T10:38:11;102094.09;;;27.46;97.12
12247;BME280;6186;52.022;4.692;2022-07-23T10:40:53;102090.50;;;27.45;95.47
12247;BME280;6186;52.022;4.692;2022-07-23T10:43:20;102085.84;;;27.47;94.82
12247;BME280;6186;52.022;4.692;2022-07-23T10:45:57;102097.31;;;27.62;95.15
12247;BME280;6186;52.022;4.692;2022-07-23T10:48:41;102091.13;;;27.72;95.58
12247;BME280;6186;52.022;4.692;2022-07-23T10:51:14;102095.28;;;27.76;94.90
12247;BME280;6186;52.022;4.692;2022-07-23T10:53:53;102087.84;;;27.91;94.89
12247;BME280;6186;52.022;4.692;2022-07-23T10:59:15;102087.69;;;28.38;95.52
12247;BME280;6186;52.022;4.692;2022-07-23T11:01:41;102084.72;;;28.41;93.68
12247;BME280;6186;52.022;4.692;2022-07-23T11:04:07;102083.88;;;28.52;93.38
12247;BME280;6186;52.022;4.692;2022-07-23T11:09:29;102076.00;;;28.60;89.17
12247;BME280;6186;52.022;4.692;2022-07-23T11:20:21;102079.75;;;29.02;87.90
12247;BME280;6186;52.022;4.692;2022-07-23T11:22:52;102074.53;;;29.21;87.58
12247;BME280;6186;52.022;4.692;2022-07-23T11:27:49;102086.63;;;29.28;86.17
12247;BME280;6186;52.022;4.692;2022-07-23T11:35:34;102081.25;;;29.48;86.05
12247;BME280;6186;52.022;4.692;2022-07-23T11:38:06;102081.84;;;29.52;85.42
12247;BME280;6186;52.022;4.692;2022-07-23T11:40:32;102087.06;;;29.64;86.09
12247;BME280;6186;52.022;4.692;2022-07-23T11:43:02;102076.47;;;29.73;85.67
12247;BME280;6186;52.022;4.692;2022-07-23T11:45:36;102082.81;;;29.83;85.43
12247;BME280;6186;52.022;4.692;2022-07-23T11:48:04;102081.88;;;29.93;85.30
12247;BME280;6186;52.022;4.692;2022-07-23T11:50:29;102070.78;;;30.06;85.16
12247;BME280;6186;52.022;4.692;2022-07-23T11:52:55;102062.84;;;30.14;83.87
12247;BME280;6186;52.022;4.692;2022-07-23T11:55:21;102068.41;;;30.12;83.02
12247;BME280;6186;52.022;4.692;2022-07-23T11:57:47;102056.09;;;30.08;82.48
12247;BME280;6186;52.022;4.692;2022-07-23T12:02:41;102056.22;;;30.27;81.93
12247;BME280;6186;52.022;4.692;2022-07-23T12:05:11;102053.69;;;30.35;81.63
12247;BME280;6186;52.022;4.692;2022-07-23T12:07:40;102049.94;;;30.27;80.09
12247;BME280;6186;52.022;4.692;2022-07-23T12:10:10;102050.50;;;30.30;80.24
12247;BME280;6186;52.022;4.692;2022-07-23T12:12:41;102050.50;;;30.30;78.83
12247;BME280;6186;52.022;4.692;2022-07-23T12:15:07;102048.97;;;30.17;77.58
12247;BME280;6186;52.022;4.692;2022-07-23T12:17:36;102053.75;;;30.24;77.26
12247;BME280;6186;52.022;4.692;2022-07-23T12:20:04;102048.44;;;30.23;76.72
12247;BME280;6186;52.022;4.692;2022-07-23T12:22:41;102054.16;;;30.20;76.47
12247;BME280;6186;52.022;4.692;2022-07-23T12:25:10;102060.44;;;30.41;77.30
12247;BME280;6186;52.022;4.692;2022-07-23T12:27:37;102058.13;;;30.36;75.45
12247;BME280;6186;52.022;4.692;2022-07-23T12:33:03;102059.19;;;30.24;74.28
12247;BME280;6186;52.022;4.692;2022-07-23T12:35:36;102056.53;;;30.34;74.83
12247;BME280;6186;52.022;4.692;2022-07-23T12:38:08;102046.72;;;30.42;74.66
12247;BME280;6186;52.022;4.692;2022-07-23T12:40:37;102042.00;;;30.44;73.62
12247;BME280;6186;52.022;4.692;2022-07-23T12:43:09;102039.69;;;30.40;73.17
12247;BME280;6186;52.022;4.692;2022-07-23T12:45:49;102048.25;;;30.35;72.52
12247;BME280;6186;52.022;4.692;2022-07-23T12:51:03;102045.66;;;30.34;72.58
12247;BME280;6186;52.022;4.692;2022-07-23T12:53:30;102041.28;;;30.42;72.54
12247;BME280;6186;52.022;4.692;2022-07-23T12:59:06;102048.84;;;30.39;70.23
12247;BME280;6186;52.022;4.692;2022-07-23T13:01:45;102028.81;;;30.40;70.87
12247;BME280;6186;52.022;4.692;2022-07-23T13:04:18;102040.88;;;30.47;70.74
12247;BME280;6186;52.022;4.692;2022-07-23T13:06:46;102042.00;;;30.44;70.54
12247;BME280;6186;52.022;4.692;2022-07-23T13:09:14;102044.28;;;30.49;70.47
12247;BME280;6186;52.022;4.692;2022-07-23T13:11:40;102037.69;;;30.42;70.02
12247;BME280;6186;52.022;4.692;2022-07-23T13:14:06;102038.31;;;30.55;70.65
12247;BME280;6186;52.022;4.692;2022-07-23T13:16:32;102038.03;;;30.58;70.46
12247;BME280;6186;52.022;4.692;2022-07-23T13:18:59;102035.63;;;30.74;70.68
12247;BME280;6186;52.022;4.692;2022-07-23T13:21:26;102026.66;;;30.83;70.16
12247;BME280;6186;52.022;4.692;2022-07-23T13:23:52;102032.66;;;30.77;69.27
12247;BME280;6186;52.022;4.692;2022-07-23T13:26:17;102027.22;;;30.77;69.78
12247;BME280;6186;52.022;4.692;2022-07-23T13:28:43;102026.03;;;30.70;68.52
12247;BME280;6186;52.022;4.692;2022-07-23T13:31:09;102031.00;;;30.55;68.33
12247;BME280;6186;52.022;4.692;2022-07-23T13:33:34;102026.56;;;30.45;67.56
12247;BME280;6186;52.022;4.692;2022-07-23T13:36:00;102031.53;;;30.40;67.90
12247;BME280;6186;52.022;4.692;2022-07-23T13:38:25;102021.53;;;30.40;67.86
12247;BME280;6186;52.022;4.692;2022-07-23T13:40:52;102019.09;;;30.37;67.27
12247;BME280;6186;52.022;4.692;2022-07-23T13:43:22;102025.66;;;30.35;66.84
12247;BME280;6186;52.022;4.692;2022-07-23T13:45:48;102029.34;;;30.34;67.11
12247;BME280;6186;52.022;4.692;2022-07-23T13:48:14;102017.06;;;30.30;66.43
12247;BME280;6186;52.022;4.692;2022-07-23T13:50:40;102022.34;;;30.31;66.92
12247;BME280;6186;52.022;4.692;2022-07-23T13:53:08;102027.22;;;30.28;66.57